Time;durP1;ratioP1;P1;durP2;ratioP2;P2;SDS_P1;SDS_P2;PMS_P1;PMS_P2;Temp;Humidity;BMP_temperature;BMP_pressure;BME280_temperature;BME280_humidity;BME280_pressure;Samples;Min_cycle;Max_cycle;Signal;HPM_P1;HPM_P2
2021/07/24 00:00:58;;;;;;;18.10;15.20;;;18.70;62.90;;;18.09;69.07;97535.53;4973069;28;20541;-76
2021/07/24 00:03:26;;;;;;;16.40;14.33;;;18.70;63.30;;;18.06;68.66;97521.63;4963084;28;20450;-77
2021/07/24 00:05:54;;;;;;;16.73;15.13;;;18.70;63.10;;;18.03;68.77;97531.19;4963332;28;20965;-76
2021/07/24 00:08:22;;;;;;;18.60;15.47;;;18.70;63.00;;;17.95;69.08;97523.50;4970383;28;20482;-77
2021/07/24 00:10:49;;;;;;;18.00;16.30;;;18.60;63.10;;;17.90;68.98;97526.25;4967283;28;20453;-76
2021/07/24 00:13:16;;;;;;;15.90;14.50;;;18.60;63.20;;;17.84;69.21;97518.06;4970675;28;20468;-76
2021/07/24 00:15:43;;;;;;;18.20;16.50;;;18.60;63.50;;;17.83;69.59;97527.38;4972645;28;20453;-76
2021/07/24 00:18:10;;;;;;;16.63;15.03;;;18.50;63.60;;;17.68;69.64;97509.06;4969645;28;20457;-76
2021/07/24 00:20:37;;;;;;;18.20;16.23;;;18.50;63.70;;;17.82;69.57;97514.78;4964816;28;20460;-76
2021/07/24 00:23:08;;;;;;;16.13;14.40;;;18.50;63.90;;;17.76;69.94;97498.69;4968104;28;20897;-76
2021/07/24 00:25:36;;;;;;;18.03;15.60;;;18.50;63.90;;;17.73;70.04;97500.03;4970586;28;20615;-76
2021/07/24 00:28:03;;;;;;;18.00;16.30;;;18.40;64.00;;;17.71;70.24;97499.50;4970352;28;20485;-77
2021/07/24 00:30:30;;;;;;;17.97;15.90;;;18.40;64.30;;;17.67;70.30;97490.22;4963386;28;20466;-77
2021/07/24 00:32:57;;;;;;;17.60;16.00;;;18.40;64.60;;;17.59;70.81;97498.97;4968514;28;20454;-76
2021/07/24 00:35:24;;;;;;;18.30;16.40;;;18.30;64.50;;;17.51;71.05;97492.94;4965865;28;20468;-76
2021/07/24 00:37:52;;;;;;;16.90;15.20;;;18.30;64.90;;;17.45;70.96;97488.59;4971414;28;20449;-77
2021/07/24 00:40:24;;;;;;;17.77;16.07;;;18.20;65.10;;;17.42;71.43;97483.69;4969548;28;20459;-77
2021/07/24 00:42:52;;;;;;;18.03;16.33;;;18.20;65.50;;;17.47;71.24;97486.41;4973327;28;20468;-77
2021/07/24 00:45:21;;;;;;;18.63;16.33;;;18.20;65.40;;;17.40;71.21;97489.41;4965937;28;20458;-76
2021/07/24 00:47:53;;;;;;;17.57;15.97;;;18.20;65.50;;;17.35;71.51;97483.13;4985096;28;20477;-77
2021/07/24 00:50:21;;;;;;;18.33;16.50;;;18.10;65.70;;;17.23;71.55;97465.13;4995595;28;20814;-77
2021/07/24 00:52:49;;;;;;;19.20;17.20;;;18.10;65.80;;;17.35;71.27;97477.66;4988237;28;20453;-77
2021/07/24 00:55:17;;;;;;;18.53;16.73;;;18.10;65.90;;;17.23;71.84;97486.13;4983878;28;20469;-77
2021/07/24 00:57:45;;;;;;;18.30;16.37;;;18.00;66.20;;;17.12;72.47;97468.94;4973779;28;20449;-77
2021/07/24 01:00:15;;;;;;;18.37;16.67;;;17.90;66.60;;;17.17;71.82;97479.03;4967636;28;20470;-76
2021/07/24 01:02:42;;;;;;;18.13;16.43;;;17.90;66.70;;;17.05;72.25;97462.91;4968556;28;20454;-76
2021/07/24 01:05:11;;;;;;;17.97;16.20;;;17.80;66.80;;;17.05;72.55;97468.34;4971968;28;20455;-76
2021/07/24 01:07:41;;;;;;;17.03;15.37;;;17.80;67.20;;;16.92;72.70;97465.06;4962710;28;20472;-77
2021/07/24 01:10:09;;;;;;;18.17;16.20;;;17.70;67.30;;;16.97;72.85;97469.69;4968869;28;20456;-77
2021/07/24 01:12:37;;;;;;;18.47;16.57;;;17.70;67.60;;;16.93;72.89;97463.97;4963281;28;20449;-77
2021/07/24 01:15:07;;;;;;;19.63;17.70;;;17.70;67.70;;;16.84;73.05;97451.94;4963415;28;20446;-77
2021/07/24 01:17:34;;;;;;;18.80;16.83;;;17.60;67.90;;;16.82;73.14;97459.56;4964750;28;20461;-77
2021/07/24 01:20:03;;;;;;;17.63;16.03;;;17.60;68.30;;;16.67;73.21;97444.81;4961282;28;20457;-77
2021/07/24 01:22:31;;;;;;;19.53;17.73;;;17.50;68.50;;;16.77;73.19;97449.47;4963855;28;20449;-77
2021/07/24 01:24:58;;;;;;;19.33;17.43;;;17.60;68.80;;;16.75;73.21;97445.34;4967870;28;20476;-77
2021/07/24 01:27:25;;;;;;;17.37;15.73;;;17.50;68.90;;;16.73;73.46;97437.47;4958577;28;20993;-76
2021/07/24 01:29:52;;;;;;;21.10;17.57;;;17.50;69.00;;;16.72;73.18;97435.81;4967248;28;20993;-77
2021/07/24 01:32:19;;;;;;;17.77;15.87;;;17.50;69.20;;;16.70;73.31;97436.09;4967342;28;20454;-78
2021/07/24 01:34:46;;;;;;;17.50;15.80;;;17.50;69.30;;;16.69;73.61;97439.91;4971080;28;20463;-78
2021/07/24 01:37:13;;;;;;;17.70;16.10;;;17.50;69.60;;;16.59;73.81;97434.41;4969950;28;20454;-77
2021/07/24 01:39:42;;;;;;;17.37;15.70;;;17.40;69.70;;;16.53;74.26;97432.78;4966301;28;20468;-77
2021/07/24 01:42:09;;;;;;;18.70;16.80;;;17.30;70.10;;;16.56;73.58;97424.88;4965067;28;20480;-77
2021/07/24 01:44:35;;;;;;;18.40;16.63;;;17.30;70.40;;;16.56;73.96;97429.50;4966928;28;20460;-77
2021/07/24 01:47:03;;;;;;;18.70;16.97;;;17.30;70.50;;;16.51;74.23;97433.03;4969887;28;20479;-77
2021/07/24 01:55:10;;;;;;;18.10;16.40;;;17.20;71.40;;;16.39;74.45;97416.94;4959330;28;20536;-77
2021/07/24 01:57:42;;;;;;;20.20;18.17;;;17.20;71.80;;;16.32;74.98;97424.53;4968268;28;21012;-77
2021/07/24 02:00:12;;;;;;;19.17;17.00;;;17.10;72.30;;;16.27;74.99;97419.06;4968381;28;20457;-77
2021/07/24 02:02:40;;;;;;;18.97;17.10;;;17.10;72.70;;;16.26;74.89;97428.31;4963591;28;20819;-77
2021/07/24 02:05:17;;;;;;;17.60;15.90;;;17.00;73.10;;;16.20;75.42;97432.13;4969619;28;21173;-77
2021/07/24 02:07:47;;;;;;;17.53;15.93;;;17.00;74.00;;;16.13;75.55;97433.19;4966905;28;21265;-77
2021/07/24 02:10:15;;;;;;;19.70;17.80;;;16.90;74.10;;;16.05;75.87;97428.25;4957376;28;20452;-78
2021/07/24 02:12:42;;;;;;;19.33;17.37;;;16.90;74.70;;;16.07;75.64;97434.25;4966371;28;20449;-77
2021/07/24 02:15:11;;;;;;;19.27;17.37;;;16.90;75.00;;;16.09;75.50;97425.81;4967119;28;20544;-78
2021/07/24 02:17:39;;;;;;;18.50;16.73;;;16.80;75.20;;;16.08;75.54;97433.16;4970826;28;20441;-77
2021/07/24 02:20:08;;;;;;;19.30;17.30;;;16.80;75.50;;;15.98;75.91;97435.81;4967724;28;20512;-77
2021/07/24 02:22:34;;;;;;;18.97;17.17;;;16.80;75.90;;;15.93;75.98;97444.00;4962845;28;20569;-77
2021/07/24 02:25:01;;;;;;;19.10;17.20;;;16.70;76.30;;;15.92;76.22;97451.34;4970419;28;20450;-76
2021/07/24 02:27:30;;;;;;;20.67;18.57;;;16.70;76.90;;;15.89;76.33;97456.47;4963036;28;20475;-77
2021/07/24 02:29:56;;;;;;;20.27;17.70;;;16.70;77.30;;;15.87;76.72;97462.16;4967537;28;20556;-77
2021/07/24 02:32:23;;;;;;;18.47;16.53;;;16.70;77.60;;;15.80;77.08;97461.59;4965173;28;20461;-77
2021/07/24 02:34:50;;;;;;;19.27;17.37;;;16.60;78.20;;;15.73;76.92;97473.53;4967975;28;20476;-77
2021/07/24 02:37:17;;;;;;;19.57;17.77;;;16.50;78.60;;;15.71;77.11;97474.88;4968132;28;20449;-77
2021/07/24 02:39:44;;;;;;;20.73;18.63;;;16.40;79.20;;;15.71;77.20;97481.13;4961213;28;20457;-77
2021/07/24 02:42:11;;;;;;;20.73;18.73;;;16.40;79.80;;;15.67;77.74;97480.03;4972630;28;20446;-76
2021/07/24 02:44:39;;;;;;;18.47;16.77;;;16.40;80.20;;;15.61;77.90;97488.44;4981267;28;21098;-76
2021/07/24 02:47:06;;;;;;;20.00;18.20;;;16.40;80.90;;;15.60;78.07;97495.75;4966996;28;20480;-76
2021/07/24 02:49:33;;;;;;;20.67;18.70;;;16.30;81.10;;;15.55;77.75;97493.84;4967098;28;20468;-76
2021/07/24 02:51:59;;;;;;;21.97;19.77;;;16.30;81.10;;;15.54;77.92;97489.47;4968785;28;20460;-76
2021/07/24 02:54:26;;;;;;;20.40;18.30;;;16.30;81.30;;;15.48;77.78;97492.41;4967324;28;20457;-76
2021/07/24 02:56:53;;;;;;;20.40;18.20;;;16.30;81.10;;;15.51;78.19;97506.31;4956619;28;20904;-76
2021/07/24 02:59:20;;;;;;;20.43;18.43;;;16.30;82.10;;;15.53;77.75;97487.81;4969037;28;20457;-78
2021/07/24 03:01:48;;;;;;;21.40;19.30;;;16.40;81.80;;;15.60;77.87;97512.09;4967210;28;20457;-76
2021/07/24 03:04:15;;;;;;;21.00;18.87;;;16.40;82.00;;;15.50;77.96;97501.16;4967842;28;20442;-76
2021/07/24 03:06:42;;;;;;;18.63;16.93;;;16.30;81.60;;;15.52;77.71;97510.66;4967416;28;20473;-76
2021/07/24 03:09:11;;;;;;;20.00;17.97;;;16.40;81.60;;;15.51;77.86;97511.75;4968049;28;20453;-77
2021/07/24 03:11:38;;;;;;;20.10;18.10;;;16.30;81.60;;;15.55;77.66;97504.72;4970908;28;20473;-76
2021/07/24 03:14:05;;;;;;;20.10;18.20;;;16.30;81.60;;;15.53;77.98;97511.50;4969065;28;20461;-77
2021/07/24 03:16:32;;;;;;;20.87;18.67;;;16.30;81.60;;;15.50;77.74;97506.59;4967185;28;20449;-76
2021/07/24 03:19:00;;;;;;;20.00;18.07;;;16.30;81.60;;;15.49;77.79;97505.75;4961083;28;20548;-76
2021/07/24 03:21:28;;;;;;;19.47;17.60;;;16.30;81.70;;;15.43;77.45;97496.72;4962321;28;20974;-76
2021/07/24 03:23:55;;;;;;;20.70;18.70;;;16.30;81.60;;;15.41;77.81;97508.97;4966054;28;20460;-77
2021/07/24 03:26:22;;;;;;;19.47;17.57;;;16.20;81.90;;;15.38;77.92;97504.03;4966068;28;20464;-77
2021/07/24 03:28:48;;;;;;;21.30;19.13;;;16.20;82.00;;;15.34;78.01;97524.69;4966704;28;20476;-77
2021/07/24 03:31:15;;;;;;;19.67;17.57;;;16.20;82.10;;;15.27;78.81;97520.28;4965066;28;21058;-77
2021/07/24 03:33:42;;;;;;;21.43;19.33;;;16.10;82.80;;;15.27;78.74;97524.88;4964878;28;20457;-77
2021/07/24 03:36:10;;;;;;;20.57;18.60;;;16.10;83.40;;;15.19;78.77;97514.50;4962014;28;20560;-77
2021/07/24 03:38:37;;;;;;;21.47;19.27;;;16.00;83.70;;;15.09;79.33;97509.75;4963731;28;20449;-78
2021/07/24 03:41:05;;;;;;;21.20;19.00;;;16.00;84.30;;;15.12;79.69;97517.41;4963517;28;20540;-77
2021/07/24 03:43:32;;;;;;;22.33;20.13;;;15.90;85.00;;;15.12;79.64;97517.41;4961560;28;20952;-78
2021/07/24 03:45:59;;;;;;;20.83;18.63;;;15.90;84.90;;;15.06;79.45;97511.09;4966140;28;20457;-77
2021/07/24 03:48:26;;;;;;;20.43;18.20;;;15.90;84.90;;;15.08;79.26;97524.44;4965795;28;21041;-78
2021/07/24 03:50:53;;;;;;;21.27;19.03;;;15.90;84.90;;;15.15;79.26;97514.19;4964722;28;20465;-78
2021/07/24 03:53:21;;;;;;;20.10;18.20;;;16.00;85.00;;;15.19;79.22;97500.88;4964454;28;20850;-77
2021/07/24 03:55:51;;;;;;;22.27;19.20;;;16.00;84.90;;;15.30;78.77;97505.31;4961620;28;20488;-77
2021/07/24 03:58:19;;;;;;;20.00;18.10;;;16.10;84.60;;;15.41;78.52;97504.34;4968083;28;20547;-77
2021/07/24 04:00:48;;;;;;;20.63;18.37;;;16.20;84.00;;;15.42;78.43;97495.09;4965356;28;20478;-77
2021/07/24 04:03:17;;;;;;;21.63;19.43;;;16.20;83.40;;;15.48;78.30;97492.41;4962432;28;20468;-77
2021/07/24 04:05:45;;;;;;;19.30;17.40;;;16.30;83.00;;;15.48;77.58;97482.34;4966476;28;20540;-77
2021/07/24 04:08:13;;;;;;;20.70;18.60;;;16.30;82.60;;;15.69;76.85;97488.75;4971330;28;20819;-77
2021/07/24 04:10:41;;;;;;;20.90;18.80;;;16.50;81.90;;;15.96;76.05;97492.50;4956698;28;20486;-77
2021/07/24 04:13:09;;;;;;;19.47;17.40;;;17.00;79.80;;;16.34;74.71;97486.94;4965069;28;20457;-77
2021/07/24 04:15:37;;;;;;;20.67;18.47;;;17.50;77.20;;;16.80;73.21;97484.38;4966553;28;20819;-77
2021/07/24 04:18:05;;;;;;;19.07;17.27;;;18.10;74.10;;;17.15;71.63;97468.38;4966442;28;20504;-77
2021/07/24 04:20:32;;;;;;;18.67;16.73;;;18.80;71.10;;;17.52;70.39;97483.69;4965025;28;20842;-77
2021/07/24 04:22:59;;;;;;;20.00;18.20;;;19.20;68.90;;;17.83;69.32;97475.44;4966096;28;20961;-77
2021/07/24 04:25:26;;;;;;;19.17;17.27;;;19.60;67.10;;;18.38;67.03;97455.59;4965613;28;20535;-77
2021/07/24 04:27:54;;;;;;;18.13;16.43;;;19.90;65.70;;;18.65;66.31;97467.22;4969713;28;20476;-77
2021/07/24 04:30:21;;;;;;;19.07;17.10;;;20.20;65.00;;;19.08;64.71;97455.81;4967199;28;20480;-77
2021/07/24 04:32:48;;;;;;;15.70;14.37;;;20.50;63.90;;;19.06;64.25;97444.31;4965240;28;20548;-77
2021/07/24 04:35:15;;;;;;;17.60;16.00;;;20.70;62.90;;;19.33;63.80;97434.78;4979368;28;20481;-77
2021/07/24 04:37:42;;;;;;;19.07;16.30;;;20.80;62.70;;;19.48;63.26;97437.38;4969370;28;20457;-77
2021/07/24 04:40:11;;;;;;;17.07;15.30;;;21.10;61.70;;;19.70;62.49;97427.03;4968561;28;20974;-77
2021/07/24 04:42:38;;;;;;;17.40;15.70;;;21.50;60.50;;;20.01;61.41;97422.09;4962700;28;20458;-77
2021/07/24 04:45:08;;;;;;;16.70;15.00;;;22.00;59.80;;;20.21;60.91;97426.53;4966039;28;20552;-77
2021/07/24 04:47:35;;;;;;;16.53;15.07;;;22.40;59.00;;;20.56;60.45;97426.34;4967781;28;20465;-77
2021/07/24 04:50:02;;;;;;;15.93;14.50;;;23.00;58.00;;;21.13;57.62;97432.97;4967526;28;20461;-78
2021/07/24 04:52:30;;;;;;;15.77;14.27;;;23.30;56.80;;;20.99;58.65;97410.91;4968125;28;20471;-78
2021/07/24 04:54:59;;;;;;;13.80;12.60;;;23.50;56.60;;;21.15;56.90;97409.56;4975080;28;20462;-77
2021/07/24 04:57:29;;;;;;;14.93;13.60;;;23.30;55.90;;;20.50;59.31;97419.28;4965937;28;20544;-78
2021/07/24 04:59:56;;;;;;;15.03;13.73;;;22.50;56.80;;;19.92;59.93;97413.69;4969923;28;20441;-78
2021/07/24 05:02:25;;;;;;;14.97;13.73;;;21.60;57.20;;;19.46;61.41;97412.19;4965399;28;20449;-78
2021/07/24 05:04:52;;;;;;;13.93;12.53;;;20.80;58.40;;;19.33;62.40;97418.34;4965974;28;20810;-78
2021/07/24 05:07:20;;;;;;;16.43;14.87;;;20.60;59.40;;;19.89;60.22;97408.78;4972869;28;20449;-77
2021/07/24 05:09:47;;;;;;;16.00;14.40;;;21.50;58.00;;;20.04;60.25;97409.72;4967312;28;20788;-76
2021/07/24 05:12:14;;;;;;;18.63;15.17;;;22.10;57.20;;;20.59;58.23;97406.53;4972134;28;20464;-76
2021/07/24 05:14:41;;;;;;;14.93;13.70;;;23.00;56.20;;;21.04;56.92;97403.41;4961029;28;21163;-76
2021/07/24 05:17:11;;;;;;;14.07;12.67;;;23.60;55.30;;;21.36;56.39;97411.97;4961881;28;20475;-77
2021/07/24 05:19:41;;;;;;;15.10;13.70;;;24.10;54.70;;;21.73;55.31;97407.50;4973123;28;20485;-78
2021/07/24 05:22:11;;;;;;;15.40;14.00;;;24.60;54.20;;;21.58;55.63;97415.97;4967044;28;20462;-77
2021/07/24 05:24:43;;;;;;;15.30;13.80;;;24.30;54.00;;;21.78;55.21;97421.16;4970279;28;20461;-78
2021/07/24 05:27:11;;;;;;;12.37;11.37;;;24.40;54.10;;;21.74;55.45;97425.59;4975766;28;20806;-78
2021/07/24 05:29:39;;;;;;;14.80;13.40;;;24.60;53.70;;;22.13;54.48;97425.44;4969737;28;20469;-78
2021/07/24 05:32:07;;;;;;;12.70;11.60;;;24.60;53.70;;;22.15;54.43;97437.78;4969288;28;20482;-78
2021/07/24 05:34:34;;;;;;;14.47;13.17;;;24.90;53.90;;;22.32;53.73;97431.63;4967278;28;20456;-78
2021/07/24 05:37:02;;;;;;;14.37;13.00;;;25.30;53.10;;;22.48;53.36;97445.09;4972823;28;20449;-78
2021/07/24 05:39:29;;;;;;;15.53;14.10;;;25.60;52.70;;;22.95;53.30;97435.81;4972750;28;20522;-78
2021/07/24 05:41:56;;;;;;;14.27;13.07;;;26.00;52.80;;;23.03;52.92;97440.59;4966943;28;20462;-79
2021/07/24 05:44:24;;;;;;;14.13;12.83;;;26.20;52.10;;;23.15;52.02;97449.13;4971390;28;20449;-79
2021/07/24 05:46:51;;;;;;;13.90;12.50;;;26.60;51.80;;;23.48;51.38;97450.81;4967755;28;20449;-79
2021/07/24 05:49:18;;;;;;;13.17;11.97;;;26.50;51.70;;;23.23;51.79;97446.72;4964124;28;20473;-79
2021/07/24 05:51:45;;;;;;;13.27;12.17;;;26.40;51.80;;;23.27;51.55;97454.09;4976068;28;20465;-80
2021/07/24 05:54:14;;;;;;;14.00;12.60;;;26.30;51.60;;;23.71;50.01;97454.38;4983258;28;20468;-80
2021/07/24 05:56:41;;;;;;;13.67;12.57;;;26.10;51.40;;;23.53;50.72;97458.16;4982427;28;20667;-79
2021/07/24 05:59:08;;;;;;;13.00;11.73;;;26.00;52.00;;;23.29;51.56;97451.03;4981121;28;20457;-79
2021/07/24 06:01:35;;;;;;;12.77;11.67;;;25.60;52.20;;;23.49;51.93;97455.22;4976260;28;20543;-79
2021/07/24 06:04:03;;;;;;;14.60;13.30;;;25.80;52.70;;;23.44;51.02;97455.34;4976236;28;20467;-79
2021/07/24 06:06:30;;;;;;;14.13;12.93;;;25.90;52.10;;;23.47;51.25;97461.06;4978936;28;20687;-79
2021/07/24 06:08:57;;;;;;;14.40;12.90;;;25.80;52.20;;;23.83;49.40;97455.72;4982747;28;20476;-79
2021/07/24 06:11:26;;;;;;;13.83;12.73;;;26.00;51.60;;;24.03;49.13;97457.97;4977185;28;20508;-79
2021/07/24 06:13:53;;;;;;;12.80;11.80;;;25.80;51.90;;;24.14;49.63;97460.44;4985224;28;20449;-79
2021/07/24 06:16:20;;;;;;;13.80;12.70;;;26.10;52.30;;;24.25;48.58;97472.84;4973643;28;20469;-79
2021/07/24 06:18:46;;;;;;;13.33;12.03;;;26.40;51.60;;;24.34;47.66;97459.06;4968174;28;20545;-79
2021/07/24 06:21:17;;;;;;;13.50;12.20;;;26.40;51.20;;;24.54;48.09;97467.88;4968673;28;20458;-79
2021/07/24 06:23:45;;;;;;;14.13;12.80;;;26.40;51.50;;;24.26;49.03;97484.66;4973508;28;20446;-80
2021/07/24 06:26:12;;;;;;;13.17;11.90;;;26.10;51.80;;;24.02;49.03;97486.69;4978374;28;20508;-79
2021/07/24 06:28:40;;;;;;;12.53;11.43;;;25.60;51.80;;;23.73;49.26;97416.28;4979011;28;20483;-79
2021/07/24 06:31:07;;;;;;;13.60;12.40;;;25.50;52.70;;;23.91;49.06;97485.31;4984096;28;20457;-79
2021/07/24 06:33:34;;;;;;;12.97;11.87;;;25.10;52.40;;;23.74;49.03;97477.75;4977097;28;20457;-79
2021/07/24 06:36:01;;;;;;;12.57;11.37;;;24.80;52.50;;;23.72;49.55;97494.59;4965922;28;20952;-78
2021/07/24 06:38:29;;;;;;;12.77;11.20;;;24.60;52.90;;;23.78;49.63;97503.56;4964775;28;20453;-78
2021/07/24 06:40:57;;;;;;;13.10;10.60;;;24.60;53.10;;;23.65;49.84;97505.28;4969359;28;20533;-80
2021/07/24 06:43:24;;;;;;;13.00;11.63;;;24.70;53.10;;;23.91;49.13;97516.47;4962888;28;20453;-78
2021/07/24 06:45:53;;;;;;;12.50;11.17;;;24.90;52.90;;;24.02;49.61;97525.31;4971861;28;20491;-79
2021/07/24 06:48:19;;;;;;;12.57;11.37;;;25.20;53.40;;;23.88;49.54;97530.06;4972698;28;20473;-79
2021/07/24 06:50:46;;;;;;;21.13;11.70;;;25.00;53.00;;;23.65;49.62;97526.50;4964275;28;20496;-79
2021/07/24 06:53:13;;;;;;;14.70;12.80;;;24.80;52.70;;;23.45;50.30;97507.41;4959779;28;20461;-79
2021/07/24 06:55:40;;;;;;;13.50;12.40;;;24.70;53.10;;;23.28;50.30;97529.31;4972684;28;20481;-79
2021/07/24 06:58:07;;;;;;;11.90;10.90;;;24.50;52.80;;;23.13;50.70;97533.19;4970931;28;20567;-79
2021/07/24 07:00:34;;;;;;;12.20;11.10;;;24.40;53.00;;;23.26;50.68;97537.91;4968165;28;20989;-79
2021/07/24 07:03:03;;;;;;;14.13;12.70;;;24.30;53.20;;;23.30;50.32;97535.34;4971194;28;20531;-79
2021/07/24 07:05:32;;;;;;;13.53;12.23;;;24.40;52.90;;;23.09;50.87;97516.47;4970007;28;20465;-79
2021/07/24 07:07:59;;;;;;;13.50;12.07;;;24.40;53.20;;;23.25;50.41;97527.13;4967663;28;20472;-79
2021/07/24 07:10:26;;;;;;;13.27;11.93;;;24.30;53.20;;;23.82;50.20;97542.34;4968817;28;20540;-80
2021/07/24 07:12:53;;;;;;;14.60;13.10;;;24.70;53.60;;;23.82;49.74;97532.16;4966467;28;20940;-79
2021/07/24 07:15:20;;;;;;;13.93;12.53;;;24.90;53.40;;;23.64;50.09;97525.69;4969652;28;20856;-79
2021/07/24 07:17:47;;;;;;;12.97;11.77;;;24.70;52.90;;;23.90;50.40;97525.06;4969420;28;20476;-79
2021/07/24 07:20:15;;;;;;;13.87;12.27;;;24.80;53.50;;;23.90;50.00;97527.81;4967489;28;20537;-79
2021/07/24 07:22:42;;;;;;;12.67;11.40;;;24.90;53.60;;;23.89;50.35;97509.66;4968794;28;20458;-79
2021/07/24 07:25:10;;;;;;;13.77;12.50;;;24.90;53.70;;;24.00;49.96;97530.28;4969658;28;20468;-79
2021/07/24 07:27:41;;;;;;;13.70;12.40;;;24.90;53.60;;;24.10;49.42;97532.00;4977264;28;20529;-79
2021/07/24 07:30:09;;;;;;;13.83;12.50;;;25.10;53.50;;;24.22;49.78;97520.38;4977136;28;20476;-80
2021/07/24 07:32:37;;;;;;;12.03;11.03;;;25.20;53.50;;;24.25;49.59;97517.00;4975784;28;20453;-79
2021/07/24 07:35:05;;;;;;;13.17;11.63;;;25.20;53.40;;;24.19;49.68;97510.00;4976396;28;21204;-79
2021/07/24 07:37:33;;;;;;;14.57;12.37;;;25.10;53.50;;;24.32;49.55;97511.81;4971803;28;20453;-79
2021/07/24 07:40:00;;;;;;;13.80;12.60;;;25.20;53.70;;;24.24;49.97;97504.31;4968850;28;20540;-79
2021/07/24 07:42:27;;;;;;;14.00;12.53;;;25.10;53.90;;;24.51;49.30;97502.47;4950512;28;20461;-80
2021/07/24 07:44:54;;;;;;;16.47;13.20;;;25.10;53.90;;;24.03;50.33;97501.31;4978864;28;20890;-79
2021/07/24 07:47:21;;;;;;;13.53;12.33;;;24.60;54.10;;;23.80;50.62;97498.53;4971649;28;20560;-79
2021/07/24 07:49:48;;;;;;;14.03;12.27;;;24.40;54.30;;;24.14;50.96;97505.41;4970154;28;20465;-80
2021/07/24 07:52:15;;;;;;;12.20;11.20;;;24.70;54.60;;;24.19;50.31;97513.56;4970919;28;21208;-79
2021/07/24 07:54:43;;;;;;;12.90;11.70;;;24.90;54.40;;;24.24;50.30;97520.88;4972660;28;20527;-79
2021/07/24 07:57:10;;;;;;;13.27;12.17;;;25.00;54.20;;;24.38;50.34;97495.13;4959867;28;20490;-80
2021/07/24 07:59:37;;;;;;;12.97;11.67;;;25.10;54.50;;;24.84;50.22;97498.50;4980997;28;20456;-80
2021/07/24 08:02:04;;;;;;;12.73;11.40;;;25.50;54.60;;;25.28;48.77;97479.22;4984150;28;20484;-79
2021/07/24 08:04:32;;;;;;;13.23;11.93;;;25.80;54.20;;;25.50;48.49;97467.19;4986206;28;20453;-79
2021/07/24 08:06:59;;;;;;;12.10;11.07;;;26.10;54.10;;;25.40;49.04;97490.44;4983170;28;20454;-80
2021/07/24 08:09:26;;;;;;;12.37;11.27;;;26.20;53.90;;;25.50;48.40;97492.06;4985778;28;20547;-80
2021/07/24 08:11:55;;;;;;;12.10;11.10;;;26.20;53.90;;;25.22;49.23;97491.56;4976615;28;20488;-80
2021/07/24 08:14:22;;;;;;;12.27;11.27;;;25.90;53.80;;;25.18;49.35;97478.38;4979594;28;20439;-80
2021/07/24 08:16:49;;;;;;;12.90;11.70;;;25.90;54.10;;;25.76;48.35;97493.97;4982264;28;20549;-79
2021/07/24 08:19:16;;;;;;;13.07;12.07;;;26.30;54.30;;;26.22;47.27;97497.13;4983407;28;20499;-79
2021/07/24 08:21:43;;;;;;;12.17;11.17;;;26.70;53.40;;;26.29;46.41;97493.84;4975932;28;20497;-79
2021/07/24 08:24:10;;;;;;;12.60;11.50;;;27.00;52.80;;;26.39;46.00;97503.72;4980828;28;20988;-79
2021/07/24 08:26:37;;;;;;;12.60;11.37;;;27.20;53.00;;;26.52;45.00;97497.16;4979995;28;20476;-80
2021/07/24 08:29:05;;;;;;;12.27;11.37;;;27.20;52.00;;;26.64;45.10;97490.09;4985360;28;20508;-80
2021/07/24 08:31:34;;;;;;;11.37;10.50;;;27.30;52.40;;;26.89;44.53;97499.41;4982554;28;20465;-80
2021/07/24 08:34:01;;;;;;;12.13;11.13;;;27.50;52.20;;;26.84;44.43;97482.94;4985719;28;20473;-80
2021/07/24 08:36:28;;;;;;;12.10;10.43;;;27.60;51.70;;;26.77;43.99;97483.50;4985224;28;20445;-80
2021/07/24 08:38:55;;;;;;;12.60;11.47;;;27.50;51.40;;;26.68;44.50;97482.72;4984908;28;20513;-80
2021/07/24 08:41:22;;;;;;;12.77;11.50;;;27.50;51.40;;;26.86;43.97;97477.91;4987727;28;20498;-80
2021/07/24 08:43:49;;;;;;;12.20;11.20;;;27.50;51.20;;;26.82;43.65;97474.97;4981081;28;20501;-80
2021/07/24 08:46:20;;;;;;;12.60;11.60;;;27.60;51.00;;;27.06;43.77;97476.28;4985163;28;20525;-80
2021/07/24 08:48:47;;;;;;;13.33;12.07;;;27.80;51.50;;;27.14;44.13;97483.75;4983282;28;20465;-80
2021/07/24 08:51:17;;;;;;;13.40;12.30;;;27.80;51.50;;;27.23;43.19;97480.88;4984706;28;20450;-80
2021/07/24 08:53:44;;;;;;;11.40;10.43;;;28.00;51.10;;;27.26;42.93;97477.44;4983370;28;20492;-80
2021/07/24 08:56:19;;;;;;;12.00;10.90;;;28.00;50.60;;;26.74;43.46;97475.84;4989291;28;20492;-81
2021/07/24 08:58:51;;;;;;;10.80;9.87;;;27.80;50.40;;;26.59;43.23;97482.78;4988296;28;20666;-80
2021/07/24 09:01:22;;;;;;;10.60;9.70;;;27.50;50.20;;;26.73;42.59;97490.84;4990482;28;20433;-82
2021/07/24 09:03:50;;;;;;;12.60;9.50;;;27.50;50.20;;;27.09;42.04;97483.94;4994119;28;20436;-79
2021/07/24 09:06:22;;;;;;;11.07;10.17;;;27.60;49.90;;;27.13;42.32;97484.88;4991217;28;20454;-80
2021/07/24 09:08:51;;;;;;;10.47;9.53;;;27.80;50.10;;;27.11;42.71;97489.97;4993006;28;20525;-80
2021/07/24 09:11:19;;;;;;;11.07;10.00;;;28.00;50.10;;;27.38;41.65;97473.09;4989806;28;20453;-80
2021/07/24 09:13:46;;;;;;;11.27;10.17;;;28.30;49.70;;;27.60;41.09;97483.03;4987505;28;20461;-80
2021/07/24 09:16:13;;;;;;;10.10;9.30;;;28.30;49.30;;;28.03;39.35;97485.69;4988519;28;20449;-80
2021/07/24 09:18:42;;;;;;;10.80;9.80;;;28.50;49.20;;;28.05;40.68;97486.16;4988518;28;20445;-79
2021/07/24 09:21:09;;;;;;;11.00;10.17;;;28.80;49.50;;;28.28;39.65;97483.78;4987940;28;20457;-81
2021/07/24 09:23:39;;;;;;;10.90;9.90;;;28.90;48.70;;;28.41;38.69;97459.59;4984208;28;20493;-81
2021/07/24 09:26:07;;;;;;;10.77;9.97;;;29.10;48.50;;;28.05;40.45;97475.06;4984900;28;20457;-82
2021/07/24 09:28:36;;;;;;;10.57;9.63;;;28.90;49.00;;;27.93;40.79;97471.09;4977664;28;20556;-82
2021/07/24 09:31:21;;;;;;;10.60;9.70;;;28.80;49.00;;;28.07;39.68;97465.25;4984545;28;20567;-80
2021/07/24 09:33:54;;;;;;;11.50;10.40;;;28.80;48.80;;;27.69;40.90;97464.34;4985181;28;20542;-80
2021/07/24 09:36:31;;;;;;;11.00;10.10;;;28.50;49.20;;;27.72;40.67;97457.28;4986902;28;20453;-82
2021/07/24 09:39:09;;;;;;;10.63;9.73;;;28.40;49.10;;;27.66;40.87;97453.13;4981499;28;20456;-82
2021/07/24 09:41:36;;;;;;;10.20;9.40;;;28.50;49.20;;;27.76;41.22;97435.22;4985360;28;20522;-82
2021/07/24 09:44:04;;;;;;;9.93;9.13;;;28.60;49.40;;;27.70;40.75;97421.59;4984061;28;20462;-80
2021/07/24 09:46:31;;;;;;;10.77;9.97;;;28.50;49.20;;;28.12;40.33;97428.09;5001188;28;20465;-81
2021/07/24 09:49:12;;;;;;;11.83;9.63;;;28.80;49.10;;;27.96;39.79;97427.97;4983397;28;20460;-82
2021/07/24 09:51:41;;;;;;;11.40;10.47;;;28.80;48.60;;;28.17;40.22;97421.53;4984638;28;20469;-80
2021/07/24 09:54:26;;;;;;;11.40;10.23;;;28.70;49.00;;;28.11;39.24;97415.38;4990189;28;20562;-80
2021/07/24 09:56:53;;;;;;;11.17;10.17;;;28.70;48.30;;;28.64;37.29;97425.78;4985730;28;20472;-81
2021/07/24 09:59:22;;;;;;;10.23;9.13;;;29.00;47.40;;;29.13;37.20;97420.13;4984812;28;20465;-82
2021/07/24 10:01:56;;;;;;;10.77;9.77;;;29.60;47.40;;;29.29;38.05;97422.13;4985072;28;20468;-82
2021/07/24 10:04:27;;;;;;;10.80;10.00;;;29.60;48.00;;;29.11;38.22;97418.84;4990815;28;20485;-81
2021/07/24 10:06:59;;;;;;;10.50;9.50;;;29.90;47.90;;;29.40;36.74;97412.13;4986148;28;20488;-81
2021/07/24 10:09:29;;;;;;;11.23;10.33;;;30.10;47.20;;;29.46;36.42;97411.88;4980927;28;20488;-82
2021/07/24 10:11:57;;;;;;;9.40;8.50;;;30.10;46.40;;;29.32;34.82;97390.03;4985373;28;20457;-80
2021/07/24 10:14:25;;;;;;;9.50;8.70;;;30.00;45.60;;;29.36;36.75;97400.09;4987616;28;20492;-82
2021/07/24 10:16:54;;;;;;;10.17;9.30;;;29.80;46.90;;;29.37;37.29;97398.94;4980725;28;20540;-77